createdAt,value
2023-03-10T00:01:10.371Z,7.20
2023-03-10T00:03:36.850Z,7.20
2023-03-10T00:06:04.196Z,7.20
2023-03-10T00:08:30.781Z,7.30
2023-03-10T00:10:57.309Z,7.30
2023-03-10T00:13:23.879Z,7.30
2023-03-10T00:15:50.449Z,7.40
2023-03-10T00:18:16.965Z,7.40
2023-03-10T00:20:43.575Z,7.30
2023-03-10T00:23:10.122Z,7.20
2023-03-10T00:25:36.659Z,7.10
2023-03-10T00:28:03.202Z,7.00
2023-03-10T00:30:32.546Z,7.00
2023-03-10T00:32:59.454Z,6.90
2023-03-10T00:35:26.060Z,6.90
2023-03-10T00:37:53.284Z,7.00
2023-03-10T00:40:19.894Z,7.00
2023-03-10T00:42:46.458Z,7.00
2023-03-10T00:45:13.016Z,7.00
2023-03-10T00:47:39.519Z,7.00
2023-03-10T00:50:06.318Z,7.00
2023-03-10T00:52:33.212Z,7.00
2023-03-10T00:54:59.780Z,7.10
2023-03-10T00:57:26.687Z,7.10
2023-03-10T00:59:53.210Z,7.10
2023-03-10T01:02:20.038Z,7.10
2023-03-10T01:04:47.144Z,7.00
2023-03-10T01:07:13.730Z,7.00
2023-03-10T01:09:40.275Z,7.00
2023-03-10T01:12:07.014Z,7.10
2023-03-10T01:14:33.632Z,7.10
2023-03-10T01:17:00.191Z,7.10
2023-03-10T01:19:26.706Z,7.10
2023-03-10T01:21:53.244Z,7.20
2023-03-10T01:24:19.862Z,7.20
2023-03-10T01:26:46.390Z,7.20
2023-03-10T01:29:13.004Z,7.30
2023-03-10T01:31:41.806Z,7.40
2023-03-10T01:34:08.513Z,7.60
2023-03-10T01:36:35.110Z,7.60
2023-03-10T01:39:01.732Z,7.70
2023-03-10T01:41:28.303Z,7.80
2023-03-10T01:43:55.854Z,7.80
2023-03-10T01:46:25.707Z,8.00
2023-03-10T01:48:53.453Z,8.00
2023-03-10T01:51:20.406Z,8.10
2023-03-10T01:53:47.094Z,8.10
2023-03-10T01:56:14.127Z,8.10
2023-03-10T01:58:42.397Z,8.20
2023-03-10T02:01:10.347Z,8.20
2023-03-10T02:03:40.941Z,8.20
2023-03-10T02:06:11.538Z,8.20
2023-03-10T02:08:43.097Z,8.20
2023-03-10T02:11:11.317Z,8.10
2023-03-10T02:13:37.798Z,8.20
2023-03-10T02:16:04.594Z,8.20
2023-03-10T02:18:31.787Z,8.30
2023-03-10T02:21:17.188Z,8.40
2023-03-10T02:23:51.394Z,8.30
2023-03-10T02:26:38.518Z,8.30
2023-03-10T02:32:34.890Z,8.20
2023-03-10T02:35:01.630Z,8.30
2023-03-10T02:37:30.422Z,8.30
2023-03-10T02:39:57.019Z,8.20
2023-03-10T02:42:25.153Z,8.30
2023-03-10T02:44:52.464Z,8.30
2023-03-10T02:47:19.968Z,8.30
2023-03-10T02:49:46.581Z,8.30
2023-03-10T02:52:28.690Z,8.30
2023-03-10T02:54:55.263Z,8.40
2023-03-10T02:57:21.829Z,8.40
2023-03-10T02:59:48.379Z,8.40
2023-03-10T03:02:15.067Z,8.30
2023-03-10T03:04:43.303Z,8.40
2023-03-10T03:07:09.817Z,8.40
2023-03-10T03:09:36.302Z,8.40
2023-03-10T03:12:02.873Z,8.40
2023-03-10T03:14:29.380Z,8.40
2023-03-10T03:16:55.947Z,8.40
2023-03-10T03:19:22.575Z,8.40
2023-03-10T03:21:50.083Z,8.30
2023-03-10T03:24:17.873Z,8.40
2023-03-10T03:26:44.578Z,8.30
2023-03-10T03:29:12.047Z,8.20
2023-03-10T03:31:38.616Z,8.20
2023-03-10T03:34:05.247Z,8.30
2023-03-10T03:36:31.856Z,8.30
2023-03-10T03:38:58.362Z,8.30
2023-03-10T03:41:24.958Z,8.20
2023-03-10T03:43:51.447Z,8.20
2023-03-10T03:46:18.025Z,8.20
2023-03-10T03:48:44.574Z,8.10
2023-03-10T03:51:11.092Z,8.10
2023-03-10T03:53:37.626Z,8.10
2023-03-10T03:56:04.437Z,8.10
2023-03-10T03:58:30.934Z,8.00
2023-03-10T04:00:57.596Z,8.00
2023-03-10T04:03:24.161Z,8.10
2023-03-10T04:05:50.797Z,8.00
2023-03-10T04:08:17.408Z,8.00
2023-03-10T04:10:49.753Z,8.00
2023-03-10T04:13:16.263Z,7.90
2023-03-10T04:15:42.847Z,7.80
2023-03-10T04:18:10.643Z,7.90
2023-03-10T04:20:37.286Z,8.00
2023-03-10T04:23:04.182Z,8.10
2023-03-10T04:25:30.847Z,8.20
2023-03-10T04:27:57.498Z,8.20
2023-03-10T04:30:29.162Z,8.30
2023-03-10T04:32:59.470Z,8.30
2023-03-10T04:35:26.391Z,8.20
2023-03-10T04:37:53.179Z,8.20
2023-03-10T04:40:19.846Z,8.20
2023-03-10T04:42:46.786Z,8.20
2023-03-10T04:45:13.772Z,8.20
2023-03-10T04:47:40.280Z,8.20
2023-03-10T04:50:07.130Z,8.30
2023-03-10T04:52:33.657Z,8.30
2023-03-10T04:55:00.290Z,8.30
2023-03-10T04:57:26.864Z,8.30
2023-03-10T04:59:53.466Z,8.30
2023-03-10T05:02:20.248Z,8.40
2023-03-10T05:04:46.837Z,8.40
2023-03-10T05:10:05.292Z,8.40
2023-03-10T05:12:31.799Z,8.40
2023-03-10T05:14:58.313Z,8.40
2023-03-10T05:17:26.751Z,8.40
2023-03-10T05:19:54.821Z,8.40
2023-03-10T05:22:21.305Z,8.40
2023-03-10T05:24:48.279Z,8.40
2023-03-10T05:27:15.019Z,8.40
2023-03-10T05:29:41.792Z,8.40
2023-03-10T05:32:08.417Z,8.40
2023-03-10T05:34:35.158Z,8.50
2023-03-10T05:37:01.708Z,8.50
2023-03-10T05:39:28.208Z,8.50
2023-03-10T05:41:54.730Z,8.60
2023-03-10T05:44:21.301Z,8.60
2023-03-10T05:46:47.928Z,8.60
2023-03-10T05:49:14.525Z,8.60
2023-03-10T05:51:41.038Z,8.60
2023-03-10T05:54:09.373Z,8.60
2023-03-10T05:56:35.894Z,8.50
2023-03-10T05:59:02.856Z,8.60
2023-03-10T06:01:29.536Z,8.60
2023-03-10T06:03:56.217Z,8.60
2023-03-10T06:06:22.788Z,8.70
2023-03-10T06:08:49.333Z,8.60
2023-03-10T06:11:15.836Z,8.70
2023-03-10T06:13:42.405Z,8.60
2023-03-10T06:16:09.008Z,8.60
2023-03-10T06:18:35.565Z,8.60
2023-03-10T06:21:06.265Z,8.60
2023-03-10T06:23:32.854Z,8.70
2023-03-10T06:26:00.589Z,8.70
2023-03-10T06:28:32.674Z,8.70
2023-03-10T06:31:00.284Z,8.70
2023-03-10T06:33:26.998Z,8.70
2023-03-10T06:35:53.793Z,8.70
2023-03-10T06:38:20.781Z,8.70
2023-03-10T06:40:47.276Z,8.80
2023-03-10T06:43:13.838Z,8.80
2023-03-10T06:45:46.836Z,8.80
2023-03-10T06:48:13.967Z,8.80
2023-03-10T06:50:41.920Z,8.80
2023-03-10T06:53:08.814Z,8.90
2023-03-10T06:55:35.369Z,8.90
2023-03-10T06:58:01.939Z,8.90
2023-03-10T07:00:28.498Z,8.90
2023-03-10T07:02:55.009Z,9.00
2023-03-10T07:05:23.078Z,9.00
2023-03-10T07:07:50.712Z,9.10
2023-03-10T07:10:17.485Z,9.10
2023-03-10T07:12:44.008Z,9.10
2023-03-10T07:15:10.809Z,9.10
2023-03-10T07:17:37.420Z,9.10
2023-03-10T07:20:04.764Z,9.10
2023-03-10T07:22:31.379Z,9.10
2023-03-10T07:24:57.888Z,9.20
2023-03-10T07:27:24.437Z,9.20
2023-03-10T07:29:50.983Z,9.30
2023-03-10T07:32:17.501Z,9.30
2023-03-10T07:34:44.020Z,9.30
2023-03-10T07:37:10.818Z,9.30
2023-03-10T07:39:37.300Z,9.30
2023-03-10T07:42:03.926Z,9.20
2023-03-10T07:44:30.473Z,9.10
2023-03-10T07:46:56.985Z,9.00
2023-03-10T07:49:23.562Z,9.00
2023-03-10T07:51:50.074Z,9.10
2023-03-10T07:54:16.590Z,9.10
2023-03-10T07:56:43.112Z,9.30
2023-03-10T07:59:09.649Z,9.40
2023-03-10T08:01:36.173Z,9.60
2023-03-10T08:04:03.220Z,9.70
2023-03-10T08:06:30.796Z,9.80
2023-03-10T08:08:57.995Z,9.90
2023-03-10T08:11:24.649Z,10.10
2023-03-10T08:13:51.479Z,10.20
2023-03-10T08:16:19.585Z,10.40
2023-03-10T08:18:46.117Z,10.40
2023-03-10T08:21:12.710Z,10.30
2023-03-10T08:23:39.458Z,10.40
2023-03-10T08:26:07.120Z,10.40
2023-03-10T08:28:35.173Z,10.40
2023-03-10T08:31:07.082Z,10.40
2023-03-10T08:33:33.620Z,10.40
2023-03-10T08:36:11.823Z,10.30
2023-03-10T08:38:38.876Z,10.30
2023-03-10T08:41:09.967Z,10.20
2023-03-10T08:43:36.739Z,10.10
2023-03-10T08:46:03.287Z,10.00
2023-03-10T08:48:29.877Z,10.00
2023-03-10T08:50:57.949Z,10.00
2023-03-10T08:53:24.620Z,9.90
2023-03-10T08:55:52.321Z,9.90
2023-03-10T08:58:19.093Z,9.90
2023-03-10T09:00:45.660Z,9.80
2023-03-10T09:03:15.425Z,9.80
2023-03-10T09:05:42.135Z,9.70
2023-03-10T09:08:08.974Z,9.70
2023-03-10T09:10:36.398Z,9.70
2023-03-10T09:13:13.249Z,9.70
2023-03-10T09:15:41.447Z,9.80
2023-03-10T09:18:11.872Z,10.00
2023-03-10T09:20:39.636Z,10.10
2023-03-10T09:23:06.819Z,10.20
2023-03-10T09:25:33.382Z,10.20
2023-03-10T09:28:00.062Z,10.20
2023-03-10T09:30:27.122Z,10.20
2023-03-10T09:32:53.911Z,10.20
2023-03-10T09:35:20.816Z,10.20
2023-03-10T09:37:47.429Z,10.20
2023-03-10T09:40:18.522Z,10.20
2023-03-10T09:42:46.716Z,10.30
2023-03-10T09:45:25.393Z,10.30
2023-03-10T09:48:16.217Z,10.30
2023-03-10T09:50:49.785Z,10.20
2023-03-10T09:53:35.232Z,10.20
2023-03-10T09:56:04.887Z,10.30
2023-03-10T09:58:42.466Z,10.40
2023-03-10T10:01:17.289Z,10.40
2023-03-10T10:03:52.968Z,10.50
2023-03-10T10:06:22.852Z,10.60
2023-03-10T10:09:05.752Z,10.70
2023-03-10T10:11:33.215Z,10.80
2023-03-10T10:14:22.043Z,10.90
2023-03-10T10:16:56.274Z,11.00
2023-03-10T10:19:27.246Z,10.90
2023-03-10T10:22:07.597Z,10.90
2023-03-10T10:24:34.503Z,10.90
2023-03-10T10:27:01.228Z,11.00
2023-03-10T10:29:36.461Z,11.10
2023-03-10T10:32:05.534Z,11.10
2023-03-10T10:34:32.697Z,11.20
2023-03-10T10:36:59.921Z,11.30
2023-03-10T10:39:28.786Z,11.30
2023-03-10T10:42:11.652Z,11.40
2023-03-10T10:44:44.585Z,11.30
2023-03-10T10:47:26.633Z,11.40
2023-03-10T10:49:53.238Z,11.50
2023-03-10T10:52:23.854Z,11.70
2023-03-10T10:54:58.767Z,11.80
2023-03-10T10:57:48.360Z,11.80
2023-03-10T11:00:18.447Z,11.80
2023-03-10T11:02:45.747Z,11.90
2023-03-10T11:05:12.274Z,11.90
2023-03-10T11:07:38.967Z,12.10
2023-03-10T11:10:11.662Z,12.10
2023-03-10T11:12:52.087Z,12.10
2023-03-10T11:15:21.119Z,12.20
2023-03-10T11:17:53.236Z,12.30
2023-03-10T11:20:32.757Z,12.40
2023-03-10T11:23:18.180Z,12.40
2023-03-10T11:25:58.449Z,12.60
2023-03-10T11:28:46.531Z,12.70
2023-03-10T11:31:35.993Z,12.70
2023-03-10T11:34:05.338Z,12.80
2023-03-10T11:36:43.233Z,12.80
2023-03-10T11:39:27.505Z,12.80
2023-03-10T11:41:59.713Z,12.70
2023-03-10T11:44:38.922Z,12.60
2023-03-10T11:47:42.037Z,12.50
2023-03-10T11:50:23.074Z,12.50
2023-03-10T11:52:50.766Z,12.50
2023-03-10T11:55:21.309Z,12.40
2023-03-10T11:57:50.237Z,12.30
2023-03-10T12:00:37.122Z,12.20
2023-03-10T12:03:13.100Z,12.20
2023-03-10T12:05:43.244Z,12.30
2023-03-10T12:08:11.086Z,12.50
2023-03-10T12:10:39.610Z,12.60
2023-03-10T12:13:06.281Z,12.80
2023-03-10T12:15:39.737Z,12.90
2023-03-10T12:18:06.962Z,12.90
2023-03-10T12:20:34.353Z,12.90
2023-03-10T12:23:21.512Z,12.90
2023-03-10T12:25:48.939Z,13.00
2023-03-10T12:28:20.316Z,13.00
2023-03-10T12:30:51.607Z,13.10
2023-03-10T12:33:30.252Z,13.10
2023-03-10T12:36:02.456Z,13.10
2023-03-10T12:38:30.802Z,13.00
2023-03-10T12:40:57.868Z,12.90
2023-03-10T12:43:42.686Z,13.00
2023-03-10T12:46:16.032Z,13.00
2023-03-10T12:48:45.380Z,12.90
2023-03-10T12:51:16.485Z,12.80
2023-03-10T12:54:04.715Z,12.80
2023-03-10T12:56:36.735Z,12.70
2023-03-10T12:59:16.630Z,12.60
2023-03-10T13:01:55.600Z,12.60
2023-03-10T13:04:24.004Z,12.60
2023-03-10T13:06:55.314Z,12.60
2023-03-10T13:09:33.395Z,12.60
2023-03-10T13:12:20.299Z,12.40
2023-03-10T13:14:50.812Z,11.80
2023-03-10T13:17:22.472Z,11.10
2023-03-10T13:19:59.635Z,10.40
2023-03-10T13:22:26.407Z,9.70
2023-03-10T13:25:00.623Z,9.30
2023-03-10T13:27:29.110Z,9.10
2023-03-10T13:29:56.568Z,8.90
2023-03-10T13:32:23.339Z,8.80
2023-03-10T13:34:49.918Z,8.70
2023-03-10T13:37:16.423Z,8.60
2023-03-10T13:39:43.405Z,8.60
2023-03-10T13:42:40.983Z,8.60
2023-03-10T13:45:14.995Z,8.60
2023-03-10T13:47:42.310Z,8.70
2023-03-10T13:50:11.192Z,8.80
2023-03-10T13:52:37.742Z,8.80
2023-03-10T13:55:14.218Z,8.90
2023-03-10T13:57:41.560Z,9.10
2023-03-10T14:00:11.389Z,9.20
2023-03-10T14:02:39.376Z,9.50
2023-03-10T14:05:09.039Z,9.80
2023-03-10T14:07:37.543Z,10.00
2023-03-10T14:10:08.591Z,10.30
2023-03-10T14:12:40.017Z,10.50
2023-03-10T14:15:12.633Z,10.60
2023-03-10T14:17:39.430Z,10.60
2023-03-10T14:20:08.237Z,10.50
2023-03-10T14:22:43.275Z,10.40
2023-03-10T14:25:17.231Z,10.20
2023-03-10T14:27:45.671Z,10.00
2023-03-10T14:30:31.199Z,9.90
2023-03-10T14:32:58.516Z,9.80
2023-03-10T14:35:25.310Z,9.80
2023-03-10T14:37:52.413Z,9.80
2023-03-10T14:40:20.196Z,9.80
2023-03-10T14:42:47.962Z,9.80
2023-03-10T14:45:27.337Z,9.70
2023-03-10T14:47:54.884Z,9.80
2023-03-10T14:50:22.751Z,9.90
2023-03-10T14:52:49.420Z,10.00
2023-03-10T14:55:18.627Z,9.90
2023-03-10T14:57:46.348Z,9.90
2023-03-10T15:00:18.690Z,9.80
2023-03-10T15:02:45.820Z,9.70
2023-03-10T15:05:16.512Z,9.60
2023-03-10T15:07:43.112Z,9.60
2023-03-10T15:10:14.428Z,9.60
2023-03-10T15:12:41.421Z,9.60
2023-03-10T15:15:15.582Z,9.60
2023-03-10T15:17:42.201Z,9.60
2023-03-10T15:20:16.320Z,9.60
2023-03-10T15:22:46.201Z,9.60
2023-03-10T15:25:13.775Z,9.70
2023-03-10T15:27:40.478Z,9.90
2023-03-10T15:30:08.041Z,10.10
2023-03-10T15:32:34.593Z,10.30
2023-03-10T15:35:01.147Z,10.40
2023-03-10T15:37:27.690Z,10.40
2023-03-10T15:39:54.260Z,10.30
2023-03-10T15:42:20.773Z,10.20
2023-03-10T15:44:50.539Z,10.10
2023-03-10T15:47:17.087Z,10.00
2023-03-10T15:49:43.698Z,9.80
2023-03-10T15:52:10.204Z,9.70
2023-03-10T15:54:36.727Z,9.60
2023-03-10T15:57:03.348Z,9.40
2023-03-10T15:59:29.837Z,9.20
2023-03-10T16:01:56.507Z,9.10
2023-03-10T16:04:23.715Z,9.00
2023-03-10T16:06:50.310Z,9.00
2023-03-10T16:09:16.880Z,9.00
2023-03-10T16:11:43.397Z,9.00
2023-03-10T16:14:09.893Z,9.00
2023-03-10T16:16:36.642Z,9.00
2023-03-10T16:19:03.354Z,9.00
2023-03-10T16:21:30.015Z,8.90
2023-03-10T16:23:56.976Z,8.80
2023-03-10T16:26:23.918Z,8.70
2023-03-10T16:28:52.973Z,8.70
2023-03-10T16:31:20.822Z,8.60
2023-03-10T16:33:48.041Z,8.60
2023-03-10T16:36:17.212Z,8.50
2023-03-10T16:38:44.189Z,8.40
2023-03-10T16:41:11.327Z,8.30
2023-03-10T16:43:38.309Z,8.30
2023-03-10T16:46:04.980Z,8.20
2023-03-10T16:48:31.533Z,8.10
2023-03-10T16:50:58.062Z,8.10
2023-03-10T16:53:24.572Z,8.00
2023-03-10T16:55:51.122Z,7.90
2023-03-10T16:58:17.615Z,7.90
2023-03-10T17:00:44.162Z,7.80
2023-03-10T17:03:10.714Z,7.80
2023-03-10T17:05:39.138Z,7.80
2023-03-10T17:08:06.007Z,7.90
2023-03-10T17:10:33.455Z,7.90
2023-03-10T17:12:59.950Z,7.90
2023-03-10T17:15:26.486Z,8.00
2023-03-10T17:17:53.087Z,8.00
2023-03-10T17:20:19.834Z,7.90
2023-03-10T17:22:46.467Z,7.80
2023-03-10T17:25:13.294Z,7.90
2023-03-10T17:27:41.750Z,7.90
2023-03-10T17:30:09.235Z,7.80
2023-03-10T17:32:36.994Z,7.90
2023-03-10T17:35:04.712Z,7.90
2023-03-10T17:37:31.193Z,7.90
2023-03-10T17:39:57.754Z,7.90
2023-03-10T17:42:25.310Z,7.90
2023-03-10T17:44:51.881Z,8.00
2023-03-10T17:47:18.388Z,8.00
2023-03-10T17:49:45.388Z,7.90
2023-03-10T17:52:11.904Z,7.90
2023-03-10T17:54:38.449Z,7.90
2023-03-10T17:57:05.080Z,7.90
2023-03-10T17:59:32.759Z,8.00
2023-03-10T18:02:00.480Z,8.10
2023-03-10T18:04:29.534Z,8.00
2023-03-10T18:06:56.042Z,7.90
2023-03-10T18:09:22.842Z,7.90
2023-03-10T18:11:49.682Z,7.90
2023-03-10T18:14:16.198Z,8.00
2023-03-10T18:16:42.711Z,8.00
2023-03-10T18:19:11.167Z,8.00
2023-03-10T18:21:38.057Z,8.00
2023-03-10T18:24:04.694Z,8.00
2023-03-10T18:26:31.239Z,7.90
2023-03-10T18:28:58.684Z,7.80
2023-03-10T18:31:26.762Z,7.90
2023-03-10T18:33:53.456Z,7.90
2023-03-10T18:36:20.313Z,7.90
2023-03-10T18:38:47.165Z,7.90
2023-03-10T18:41:14.058Z,7.80
2023-03-10T18:43:40.561Z,7.80
2023-03-10T18:46:08.190Z,7.70
2023-03-10T18:48:34.913Z,7.70
2023-03-10T18:51:01.438Z,7.70
2023-03-10T18:53:28.118Z,7.70
2023-03-10T18:55:55.074Z,7.70
2023-03-10T18:58:22.001Z,7.80
2023-03-10T19:00:48.673Z,7.70
2023-03-10T19:03:15.393Z,7.70
2023-03-10T19:05:41.975Z,7.70
2023-03-10T19:08:10.272Z,7.70
2023-03-10T19:10:37.405Z,7.70
2023-03-10T19:13:04.039Z,7.70
2023-03-10T19:15:30.607Z,7.70
2023-03-10T19:17:57.164Z,7.60
2023-03-10T19:20:23.741Z,7.60
2023-03-10T19:22:51.046Z,7.70
2023-03-10T19:25:18.246Z,7.70
2023-03-10T19:27:44.819Z,7.70
2023-03-10T19:30:17.050Z,7.70
2023-03-10T19:32:44.592Z,7.70
2023-03-10T19:35:12.031Z,7.70
2023-03-10T19:37:42.825Z,7.70
2023-03-10T19:40:10.056Z,7.70
2023-03-10T19:42:38.803Z,7.70
2023-03-10T19:45:06.338Z,7.60
2023-03-10T19:47:33.258Z,7.50
2023-03-10T19:49:59.798Z,7.50
2023-03-10T19:52:28.366Z,7.50
2023-03-10T19:54:54.943Z,7.40
2023-03-10T19:57:21.517Z,7.30
2023-03-10T19:59:48.031Z,7.10
2023-03-10T20:02:15.557Z,7.00
2023-03-10T20:04:42.531Z,7.00
2023-03-10T20:07:09.938Z,6.90
2023-03-10T20:09:36.595Z,6.80
2023-03-10T20:12:03.303Z,6.80
2023-03-10T20:14:30.093Z,6.80
2023-03-10T20:16:57.789Z,6.70
2023-03-10T20:19:24.289Z,6.70
2023-03-10T20:21:50.836Z,6.70
2023-03-10T20:24:17.604Z,6.60
2023-03-10T20:26:44.281Z,6.60
2023-03-10T20:29:11.514Z,6.60
2023-03-10T20:31:38.077Z,6.50
2023-03-10T20:34:05.609Z,6.40
2023-03-10T20:36:32.562Z,6.40
2023-03-10T20:38:59.534Z,6.40
2023-03-10T20:41:26.160Z,6.40
2023-03-10T20:43:53.654Z,6.40
2023-03-10T20:46:22.444Z,6.40
2023-03-10T20:48:49.852Z,6.40
2023-03-10T20:51:19.097Z,6.40
2023-03-10T20:53:46.028Z,6.40
2023-03-10T20:56:14.474Z,6.40
2023-03-10T20:58:41.034Z,6.40
2023-03-10T21:01:15.247Z,6.40
2023-03-10T21:03:42.094Z,6.40
2023-03-10T21:06:08.700Z,6.30
2023-03-10T21:08:36.328Z,6.30
2023-03-10T21:11:04.481Z,6.30
2023-03-10T21:13:32.018Z,6.30
2023-03-10T21:15:58.815Z,6.40
2023-03-10T21:18:25.854Z,6.40
2023-03-10T21:20:52.533Z,6.30
2023-03-10T21:23:19.072Z,6.30
2023-03-10T21:25:45.567Z,6.30
2023-03-10T21:28:12.138Z,6.30
2023-03-10T21:30:38.818Z,6.30
2023-03-10T21:33:05.388Z,6.30
2023-03-10T21:35:34.201Z,6.30
2023-03-10T21:38:00.917Z,6.30
2023-03-10T21:40:27.859Z,6.20
2023-03-10T21:42:54.395Z,6.20
2023-03-10T21:45:22.822Z,6.10
2023-03-10T21:47:49.660Z,6.10
2023-03-10T21:50:17.636Z,6.10
2023-03-10T21:52:44.517Z,6.00
2023-03-10T21:55:15.669Z,6.00
2023-03-10T21:57:42.205Z,5.90
2023-03-10T22:00:09.369Z,5.80
2023-03-10T22:02:37.045Z,5.80
2023-03-10T22:05:05.962Z,5.70
2023-03-10T22:07:32.727Z,5.60
2023-03-10T22:09:59.562Z,5.60
2023-03-10T22:12:26.082Z,5.60
2023-03-10T22:14:56.286Z,5.60
2023-03-10T22:17:23.635Z,5.60
2023-03-10T22:19:50.406Z,5.60
2023-03-10T22:22:16.957Z,5.60
2023-03-10T22:24:44.323Z,5.60
2023-03-10T22:27:10.804Z,5.60
2023-03-10T22:29:37.314Z,5.60
2023-03-10T22:32:04.430Z,5.60
2023-03-10T22:34:30.960Z,5.50
2023-03-10T22:36:57.485Z,5.50
2023-03-10T22:39:24.534Z,5.40
2023-03-10T22:41:51.268Z,5.30
2023-03-10T22:44:17.863Z,5.20
2023-03-10T22:46:45.347Z,5.10
2023-03-10T22:49:12.426Z,4.80
2023-03-10T22:51:39.249Z,4.60
2023-03-10T22:54:05.958Z,4.50
2023-03-10T22:56:32.471Z,4.40
2023-03-10T22:59:03.961Z,4.20
2023-03-10T23:01:30.716Z,3.80
2023-03-10T23:03:57.464Z,3.60
2023-03-10T23:06:26.346Z,3.30
2023-03-10T23:08:52.933Z,3.10
2023-03-10T23:11:19.563Z,3.00
2023-03-10T23:13:46.116Z,2.70
2023-03-10T23:16:12.665Z,2.60
2023-03-10T23:18:39.210Z,2.50
2023-03-10T23:21:06.754Z,2.40
2023-03-10T23:23:33.273Z,2.30
2023-03-10T23:25:59.784Z,2.20
2023-03-10T23:28:26.442Z,2.10
2023-03-10T23:30:54.212Z,2.20
2023-03-10T23:33:21.910Z,2.10
2023-03-10T23:35:53.552Z,2.10
2023-03-10T23:38:21.113Z,2.10
2023-03-10T23:40:47.694Z,2.00
2023-03-10T23:43:14.589Z,2.00
2023-03-10T23:45:41.216Z,1.90
2023-03-10T23:48:08.694Z,2.00
2023-03-10T23:50:39.396Z,1.90
2023-03-10T23:53:06.518Z,2.00
2023-03-10T23:55:35.437Z,1.90
2023-03-10T23:58:02.048Z,1.90
